createdAt,value
2018-04-08T00:00:22.818Z,74.10
2018-04-08T00:02:50.342Z,74.10
2018-04-08T00:05:17.977Z,74.60
2018-04-08T00:07:45.476Z,74.70
2018-04-08T00:10:13.507Z,74.70
2018-04-08T00:12:41.911Z,75.40
2018-04-08T00:15:09.402Z,75.20
2018-04-08T00:17:36.881Z,75.50
2018-04-08T00:20:04.930Z,75.80
2018-04-08T00:22:32.405Z,76.00
2018-04-08T00:25:00.195Z,76.00
2018-04-08T00:27:28.075Z,76.10
2018-04-08T00:29:55.924Z,76.10
2018-04-08T00:32:23.476Z,76.20
2018-04-08T00:34:51.762Z,76.80
2018-04-08T00:37:20.299Z,77.10
2018-04-08T00:39:48.122Z,77.10
2018-04-08T00:42:15.607Z,77.30
2018-04-08T00:44:43.543Z,77.50
2018-04-08T00:47:12.126Z,78.00
2018-04-08T00:49:39.686Z,78.00
2018-04-08T00:52:07.459Z,78.40
2018-04-08T00:54:34.968Z,78.50
2018-04-08T00:57:02.891Z,78.80
2018-04-08T00:59:30.387Z,78.80
2018-04-08T01:01:58.196Z,78.80
2018-04-08T01:04:25.880Z,79.30
2018-04-08T01:06:53.751Z,79.60
2018-04-08T01:09:21.244Z,79.80
2018-04-08T01:11:48.778Z,79.80
2018-04-08T01:14:16.294Z,80.00
2018-04-08T01:16:44.075Z,80.20
2018-04-08T01:19:11.932Z,80.40
2018-04-08T01:21:39.503Z,80.50
2018-04-08T01:24:07.362Z,80.50
2018-04-08T01:26:35.206Z,80.70
2018-04-08T01:29:03.289Z,80.60
2018-04-08T01:31:31.206Z,80.90
2018-04-08T01:33:58.720Z,81.10
2018-04-08T01:36:26.496Z,81.00
2018-04-08T01:38:54.304Z,81.10
2018-04-08T01:41:22.118Z,81.10
2018-04-08T01:43:49.977Z,81.20
2018-04-08T01:46:17.486Z,81.40
2018-04-08T01:48:45.346Z,81.40
2018-04-08T01:51:12.962Z,81.50
2018-04-08T01:53:40.783Z,81.70
2018-04-08T01:56:08.508Z,81.90
2018-04-08T01:58:35.992Z,82.00
2018-04-08T02:01:03.493Z,82.20
2018-04-08T02:03:31.858Z,82.60
2018-04-08T02:05:59.362Z,82.50
2018-04-08T02:08:27.138Z,82.80
2018-04-08T02:10:54.632Z,83.00
2018-04-08T02:13:22.555Z,82.90
2018-04-08T02:15:50.056Z,83.40
2018-04-08T02:18:17.853Z,84.30
2018-04-08T02:20:45.839Z,83.50
2018-04-08T02:23:13.327Z,83.50
2018-04-08T02:25:40.857Z,83.90
2018-04-08T02:28:08.801Z,84.20
2018-04-08T02:30:37.393Z,84.40
2018-04-08T02:33:04.901Z,84.40
2018-04-08T02:35:32.721Z,84.60
2018-04-08T02:38:00.274Z,84.60
2018-04-08T02:40:28.160Z,85.00
2018-04-08T02:42:55.787Z,85.20
2018-04-08T02:45:23.309Z,85.50
2018-04-08T02:47:50.804Z,85.80
2018-04-08T02:50:19.406Z,86.20
2018-04-08T02:52:46.891Z,86.10
2018-04-08T02:55:14.379Z,86.50
2018-04-08T02:57:42.053Z,86.60
2018-04-08T03:00:09.652Z,86.50
2018-04-08T03:02:37.518Z,86.80
2018-04-08T03:05:05.063Z,87.10
2018-04-08T03:07:33.482Z,87.70
2018-04-08T03:10:01.117Z,87.80
2018-04-08T03:12:28.622Z,88.10
2018-04-08T03:14:56.639Z,88.10
2018-04-08T03:17:24.249Z,88.10
2018-04-08T03:19:52.516Z,88.90
2018-04-08T03:22:20.237Z,88.10
2018-04-08T03:24:48.019Z,88.10
2018-04-08T03:27:15.879Z,88.20
2018-04-08T03:29:45.767Z,88.30
2018-04-08T03:32:13.664Z,88.50
2018-04-08T03:34:41.286Z,88.60
2018-04-08T03:37:08.949Z,89.00
2018-04-08T03:39:36.611Z,88.70
2018-04-08T03:42:04.104Z,89.70
2018-04-08T03:44:31.595Z,89.00
2018-04-08T03:46:59.223Z,89.30
2018-04-08T03:49:27.294Z,89.40
2018-04-08T03:51:55.142Z,88.90
2018-04-08T03:54:23.239Z,89.60
2018-04-08T03:56:50.830Z,89.40
2018-04-08T03:59:18.354Z,89.40
2018-04-08T04:01:46.590Z,89.40
2018-04-08T04:04:14.085Z,89.40
2018-04-08T04:06:41.589Z,90.00
2018-04-08T04:09:09.198Z,90.10
2018-04-08T04:11:37.037Z,90.00
2018-04-08T04:14:04.533Z,89.90
2018-04-08T04:16:32.023Z,89.90
2018-04-08T04:19:11.599Z,89.90
2018-04-08T04:21:51.077Z,90.00
2018-04-08T04:24:30.266Z,90.00
2018-04-08T04:26:58.937Z,90.30
2018-04-08T07:32:33.780Z,36.40
2018-04-08T07:35:01.544Z,36.10
2018-04-08T07:37:29.035Z,34.90
2018-04-08T07:39:57.630Z,36.70
2018-04-08T07:42:25.142Z,36.70
2018-04-08T07:44:52.906Z,35.90
2018-04-08T07:47:21.202Z,36.10
2018-04-08T07:49:48.718Z,34.90
2018-04-08T07:52:16.979Z,34.40
2018-04-08T07:54:44.485Z,34.30
2018-04-08T07:57:12.262Z,33.90
2018-04-08T07:59:40.096Z,32.70
2018-04-08T08:02:08.312Z,33.50
2018-04-08T08:04:37.254Z,31.70
2018-04-08T08:07:04.821Z,31.10
2018-04-08T08:09:33.497Z,30.60
2018-04-08T08:12:01.981Z,30.00
2018-04-08T08:14:29.542Z,30.00
2018-04-08T08:16:57.045Z,31.00
2018-04-08T08:19:25.111Z,31.70
2018-04-08T08:21:52.660Z,31.20
2018-04-08T08:24:20.191Z,31.10
2018-04-08T08:26:48.481Z,32.40
2018-04-08T08:29:17.065Z,32.80
2018-04-08T08:31:44.951Z,32.80
2018-04-08T08:34:12.622Z,31.50
2018-04-08T08:51:01.612Z,30.60
2018-04-08T08:53:29.131Z,30.60
2018-04-08T08:55:56.636Z,30.70
2018-04-08T08:58:24.581Z,30.20
2018-04-08T09:00:52.256Z,28.70
2018-04-08T09:03:20.135Z,29.10
2018-04-08T09:05:47.890Z,29.20
2018-04-08T09:08:15.481Z,29.40
2018-04-08T09:10:43.804Z,27.90
2018-04-08T09:13:12.073Z,27.80
2018-04-08T09:15:40.339Z,27.90
2018-04-08T09:18:08.354Z,27.90
2018-04-08T09:20:41.705Z,28.10
2018-04-08T09:26:17.708Z,28.10
2018-04-08T09:28:45.682Z,27.00
2018-04-08T09:31:13.968Z,27.50
2018-04-08T09:33:41.445Z,26.40
2018-04-08T09:36:08.949Z,25.50
2018-04-08T09:38:36.470Z,26.10
2018-04-08T09:41:04.287Z,26.40
2018-04-08T09:43:31.774Z,25.40
2018-04-08T09:45:59.308Z,24.20
2018-04-08T09:48:27.092Z,25.20
2018-04-08T09:50:54.758Z,26.40
2018-04-08T09:53:22.598Z,25.20
2018-04-08T09:55:50.078Z,25.60
2018-04-08T09:58:18.023Z,26.80
2018-04-08T10:01:05.596Z,27.50
2018-04-08T10:03:50.198Z,26.80
2018-04-08T10:06:17.975Z,27.00
2018-04-08T10:08:45.831Z,26.10
2018-04-08T10:11:13.469Z,26.30
2018-04-08T10:13:41.591Z,26.30
2018-04-08T10:16:09.525Z,26.10
2018-04-08T10:18:37.024Z,25.70
2018-04-08T10:21:04.530Z,26.60
2018-04-08T10:23:32.861Z,26.90
2018-04-08T10:26:00.360Z,25.50
2018-04-08T10:28:27.868Z,26.20
2018-04-08T10:30:55.372Z,25.90
2018-04-08T10:33:22.870Z,25.90
2018-04-08T10:35:51.454Z,25.60
2018-04-08T10:38:18.984Z,25.50
2018-04-08T10:40:47.696Z,26.60
2018-04-08T10:43:15.593Z,27.10
2018-04-08T10:45:43.098Z,26.40
2018-04-08T10:48:10.632Z,26.10
2018-04-08T10:50:38.140Z,25.30
2018-04-08T10:53:06.409Z,27.30
2018-04-08T10:55:33.897Z,27.30
2018-04-08T10:58:01.515Z,25.00
2018-04-08T11:00:29.518Z,26.50
2018-04-08T11:02:57.004Z,26.80
2018-04-08T11:05:25.260Z,27.40
2018-04-08T11:07:52.790Z,29.10
2018-04-08T11:10:20.288Z,27.80
2018-04-08T11:12:47.787Z,27.60
2018-04-08T11:15:15.289Z,29.30
2018-04-08T11:17:43.148Z,28.40
2018-04-08T11:20:11.428Z,29.40
2018-04-08T11:22:39.908Z,29.30
2018-04-08T11:25:08.280Z,30.80
2018-04-08T11:27:35.820Z,30.90
2018-04-08T11:30:03.958Z,31.30
2018-04-08T11:32:31.562Z,30.90
2018-04-08T11:34:59.857Z,33.20
2018-04-08T11:37:27.367Z,33.00
2018-04-08T11:39:55.196Z,33.70
2018-04-08T11:42:24.050Z,33.80
2018-04-08T11:44:52.214Z,33.10
2018-04-08T11:47:19.770Z,33.40
2018-04-08T11:49:49.063Z,34.60
2018-04-08T11:52:16.869Z,34.60
2018-04-08T11:54:44.660Z,34.40
2018-04-08T11:57:12.160Z,32.10
2018-04-08T11:59:41.025Z,33.80
2018-04-08T12:02:08.534Z,33.80
2018-04-08T12:04:36.415Z,32.20
2018-04-08T12:07:03.994Z,33.70
2018-04-08T12:09:32.283Z,32.00
2018-04-08T12:11:59.908Z,31.60
2018-04-08T12:14:27.621Z,30.60
2018-04-08T12:16:56.124Z,30.80
2018-04-08T12:19:24.465Z,32.30
2018-04-08T12:21:52.300Z,32.20
2018-04-08T12:24:20.173Z,32.30
2018-04-08T12:26:48.842Z,31.20
2018-04-08T12:29:16.350Z,32.20
2018-04-08T12:31:44.249Z,31.50
2018-04-08T12:34:12.529Z,33.20
2018-04-08T12:36:40.826Z,31.30
2018-04-08T12:39:10.418Z,31.30
2018-04-08T12:41:40.343Z,30.70
2018-04-08T12:44:08.004Z,30.60
2018-04-08T12:46:35.521Z,31.80
2018-04-08T12:49:03.037Z,32.00
2018-04-08T12:51:31.531Z,32.00
2018-04-08T12:53:59.110Z,34.90
2018-04-08T12:56:26.639Z,34.50
2018-04-08T12:58:54.384Z,33.80
2018-04-08T13:01:22.195Z,35.40
2018-04-08T13:03:49.686Z,33.60
2018-04-08T13:06:17.573Z,35.00
2018-04-08T13:08:45.831Z,31.40
2018-04-08T13:11:13.737Z,31.40
2018-04-08T13:13:41.256Z,32.50
2018-04-08T13:16:09.242Z,32.90
2018-04-08T13:18:37.388Z,32.40
2018-04-08T13:21:04.888Z,33.00
2018-04-08T13:23:32.453Z,34.50
2018-04-08T13:26:01.034Z,35.00
2018-04-08T13:28:28.529Z,34.50
2018-04-08T13:30:56.083Z,34.20
2018-04-08T13:33:23.889Z,34.00
2018-04-08T13:35:52.402Z,33.50
2018-04-08T13:38:20.164Z,33.60
2018-04-08T13:40:48.224Z,34.00
2018-04-08T13:43:15.897Z,33.70
2018-04-08T13:45:43.427Z,33.00
2018-04-08T13:48:11.520Z,33.80
2018-04-08T13:50:39.012Z,35.00
2018-04-08T13:53:07.136Z,34.40
2018-04-08T13:55:35.054Z,35.00
2018-04-08T13:58:02.984Z,34.00
2018-04-08T14:00:30.860Z,33.20
2018-04-08T14:02:58.432Z,33.80
2018-04-08T14:05:26.352Z,33.80
2018-04-08T14:07:54.610Z,34.50
2018-04-08T14:10:22.467Z,34.50
2018-04-08T14:12:49.961Z,33.80
2018-04-08T14:15:17.728Z,32.70
2018-04-08T14:17:46.009Z,33.50
2018-04-08T14:20:13.668Z,33.50
2018-04-08T14:22:42.073Z,33.40
2018-04-08T14:25:10.052Z,33.40
2018-04-08T14:27:37.549Z,34.10
2018-04-08T14:30:05.072Z,33.90
2018-04-08T14:32:33.115Z,33.80
2018-04-08T14:35:01.478Z,33.70
2018-04-08T14:37:29.809Z,34.30
2018-04-08T14:39:57.334Z,34.20
2018-04-08T14:42:24.831Z,33.10
2018-04-08T14:44:52.352Z,33.30
2018-04-08T14:47:20.428Z,33.80
2018-04-08T14:49:47.980Z,33.40
2018-04-08T14:52:15.860Z,32.70
2018-04-08T14:54:43.351Z,34.40
2018-04-08T14:57:11.137Z,33.40
2018-04-08T14:59:38.695Z,33.60
2018-04-08T15:02:06.204Z,33.40
2018-04-08T15:04:34.394Z,33.80
2018-04-08T15:07:01.910Z,33.90
2018-04-08T15:09:29.778Z,33.50
2018-04-08T15:11:57.291Z,34.30
2018-04-08T15:14:24.816Z,34.40
2018-04-08T15:16:52.384Z,34.20
2018-04-08T15:19:19.876Z,34.40
2018-04-08T15:21:47.673Z,35.00
2018-04-08T15:24:15.438Z,35.50
2018-04-08T15:26:42.933Z,35.50
2018-04-08T15:29:10.960Z,35.30
2018-04-08T15:31:38.701Z,34.80
2018-04-08T15:34:06.189Z,35.30
2018-04-08T15:36:33.921Z,35.90
2018-04-08T15:39:02.173Z,36.50
2018-04-08T15:41:30.330Z,35.90
2018-04-08T15:43:57.851Z,36.50
2018-04-08T15:46:25.535Z,36.80
2018-04-08T15:48:53.033Z,36.40
2018-04-08T15:51:22.646Z,37.10
2018-04-08T15:53:50.596Z,37.10
2018-04-08T15:56:18.191Z,37.10
2018-04-08T15:58:46.791Z,38.00
2018-04-08T16:01:14.314Z,38.00
2018-04-08T16:03:41.812Z,37.90
2018-04-08T16:06:09.322Z,37.90
2018-04-08T16:08:37.125Z,37.80
2018-04-08T16:11:05.511Z,36.90
2018-04-08T16:13:33.587Z,36.90
2018-04-08T16:16:01.146Z,35.50
2018-04-08T16:18:28.647Z,35.50
2018-04-08T16:20:56.145Z,36.10
2018-04-08T16:23:23.653Z,36.50
2018-04-08T16:25:51.266Z,37.20
2018-04-08T16:28:19.872Z,38.00
2018-04-08T16:30:47.376Z,37.90
2018-04-08T16:33:15.408Z,38.40
2018-04-08T16:35:42.891Z,37.80
2018-04-08T16:38:10.395Z,38.00
2018-04-08T16:40:38.268Z,38.40
2018-04-08T16:43:06.127Z,39.10
2018-04-08T16:45:33.838Z,39.70
2018-04-08T16:48:01.317Z,39.70
2018-04-08T16:50:28.819Z,39.90
2018-04-08T16:52:56.368Z,40.20
2018-04-08T16:55:24.852Z,41.00
2018-04-08T16:57:52.358Z,40.90
2018-04-08T17:00:19.860Z,41.30
2018-04-08T17:02:48.468Z,42.10
2018-04-08T17:05:16.011Z,42.10
2018-04-08T17:07:44.211Z,42.30
2018-04-08T17:10:11.864Z,42.50
2018-04-08T17:12:39.760Z,43.00
2018-04-08T17:15:07.291Z,43.20
2018-04-08T17:17:35.661Z,43.60
2018-04-08T17:20:07.279Z,43.60
2018-04-08T17:22:35.382Z,43.80
2018-04-08T17:25:03.237Z,44.40
2018-04-08T17:27:30.760Z,45.00
2018-04-08T17:29:59.752Z,45.30
2018-04-08T17:32:32.143Z,45.80
2018-04-08T17:35:03.059Z,46.60
2018-04-08T17:37:36.808Z,46.50
2018-04-08T17:40:05.839Z,46.70
2018-04-08T17:42:37.919Z,47.10
2018-04-08T17:45:07.886Z,47.30
2018-04-08T17:47:38.669Z,48.10
2018-04-08T17:50:06.451Z,48.10
2018-04-08T17:52:34.052Z,48.40
2018-04-08T17:55:02.057Z,48.40
2018-04-08T17:57:30.036Z,48.80
2018-04-08T18:00:15.534Z,49.40
2018-04-08T18:02:43.319Z,49.30
2018-04-08T18:05:11.962Z,49.70
2018-04-08T18:07:39.591Z,49.70
2018-04-08T18:10:07.585Z,50.00
2018-04-08T18:12:51.351Z,50.40
2018-04-08T18:15:28.272Z,52.20
2018-04-08T18:17:56.460Z,51.40
2018-04-08T18:20:25.103Z,51.60
2018-04-08T18:22:52.757Z,52.00
2018-04-08T18:25:24.247Z,52.20
2018-04-08T18:27:52.752Z,52.70
2018-04-08T18:30:20.362Z,52.90
2018-04-08T18:32:47.979Z,52.90
2018-04-08T18:35:16.110Z,54.00
2018-04-08T18:37:44.114Z,53.70
2018-04-08T18:40:16.976Z,53.90
2018-04-08T18:42:46.323Z,54.30
2018-04-08T18:45:14.656Z,54.60
2018-04-08T18:47:44.323Z,55.00
2018-04-08T18:50:12.103Z,55.10
2018-04-08T18:52:39.717Z,55.60
2018-04-08T18:55:32.706Z,55.60
2018-04-08T18:58:04.539Z,55.70
2018-04-08T19:00:33.150Z,56.90
2018-04-08T19:03:03.452Z,57.00
2018-04-08T19:05:31.429Z,57.00
2018-04-08T19:07:58.925Z,57.50
2018-04-08T19:10:26.594Z,57.70
2018-04-08T19:12:54.562Z,58.00
2018-04-08T19:15:22.589Z,58.20
2018-04-08T19:17:56.469Z,58.30
2018-04-08T19:20:24.887Z,59.10
2018-04-08T19:22:52.530Z,59.00
2018-04-08T19:25:21.172Z,59.10
2018-04-08T19:27:48.945Z,59.30
2018-04-08T19:30:20.624Z,59.80
2018-04-08T19:32:48.619Z,59.90
2018-04-08T19:35:16.369Z,60.20
2018-04-08T19:37:43.912Z,60.40
2018-04-08T19:40:12.185Z,61.20
2018-04-08T19:42:40.462Z,62.00
2018-04-08T19:45:09.811Z,62.50
2018-04-08T19:47:37.346Z,62.50
2018-04-08T19:50:05.359Z,63.00
2018-04-08T19:52:33.285Z,63.10
2018-04-08T19:55:00.816Z,63.30
2018-04-08T19:57:29.130Z,63.70
2018-04-08T19:59:56.949Z,63.90
2018-04-08T20:02:25.224Z,64.20
2018-04-08T20:04:53.167Z,64.20
2018-04-08T20:07:20.688Z,64.80
2018-04-08T20:09:48.811Z,64.80
2018-04-08T20:12:16.327Z,65.40
2018-04-08T20:14:43.883Z,65.40
2018-04-08T20:17:11.421Z,65.80
2018-04-08T20:19:38.907Z,66.40
2018-04-08T20:22:06.749Z,66.20
2018-04-08T20:24:34.253Z,66.30
2018-04-08T20:27:01.770Z,66.20
2018-04-08T20:29:29.974Z,66.30
2018-04-08T20:31:57.459Z,66.50
2018-04-08T20:34:27.620Z,67.20
2018-04-08T20:36:59.355Z,67.30
2018-04-08T20:39:28.816Z,67.30
2018-04-08T20:41:59.579Z,67.30
2018-04-08T20:44:27.142Z,67.50
2018-04-08T20:46:55.740Z,67.70
2018-04-08T20:49:23.529Z,67.60
2018-04-08T20:51:51.096Z,68.00
2018-04-08T20:54:19.030Z,68.10
2018-04-08T20:56:47.315Z,68.80
2018-04-08T20:59:15.080Z,68.80
2018-04-08T21:01:42.591Z,69.10
2018-04-08T21:04:10.116Z,69.30
2018-04-08T21:06:37.869Z,69.40
2018-04-08T21:09:06.414Z,69.50
2018-04-08T21:11:34.804Z,69.80
2018-04-08T21:14:02.758Z,70.30
2018-04-08T21:16:30.562Z,70.70
2018-04-08T21:18:58.424Z,70.90
2018-04-08T21:21:26.099Z,70.90
2018-04-08T21:23:53.961Z,72.30
2018-04-08T21:26:21.465Z,71.70
2018-04-08T21:28:49.709Z,71.70
2018-04-08T21:31:17.278Z,71.90
2018-04-08T21:33:45.084Z,71.80
2018-04-08T21:36:12.574Z,71.80
2018-04-08T21:38:40.793Z,72.20
2018-04-08T21:41:08.718Z,72.30
2018-04-08T21:43:36.418Z,72.70
2018-04-08T21:46:04.246Z,73.00
2018-04-08T21:48:31.736Z,72.90
2018-04-08T21:50:59.802Z,72.80
2018-04-08T21:53:27.299Z,73.40
2018-04-08T21:55:54.925Z,74.20
2018-04-08T21:58:22.704Z,74.90
2018-04-08T22:00:50.169Z,75.30
2018-04-08T22:03:17.693Z,75.30
2018-04-08T22:05:45.186Z,75.90
2018-04-08T22:08:12.697Z,76.30
2018-04-08T22:10:41.461Z,76.60
2018-04-08T22:13:08.946Z,76.60
2018-04-08T22:15:37.199Z,78.30
2018-04-08T22:18:05.302Z,78.30
2018-04-08T22:20:32.796Z,78.10
2018-04-08T22:23:00.303Z,78.10
2018-04-08T22:25:28.559Z,78.20
2018-04-08T22:27:56.049Z,78.10
2018-04-08T22:30:23.540Z,77.80
2018-04-08T22:32:51.067Z,78.10
2018-04-08T22:35:19.045Z,78.90
2018-04-08T22:37:46.810Z,79.30
2018-04-08T22:40:17.175Z,79.00
2018-04-08T22:42:44.685Z,79.40
2018-04-08T22:45:12.490Z,79.60
2018-04-08T22:47:41.149Z,79.70
2018-04-08T22:50:09.015Z,79.40
2018-04-08T22:52:36.508Z,80.30
2018-04-08T22:55:04.643Z,80.40
2018-04-08T22:57:32.188Z,80.20
2018-04-08T23:00:00.160Z,80.20
2018-04-08T23:02:27.649Z,80.40
2018-04-08T23:04:55.188Z,82.30
2018-04-08T23:07:22.687Z,82.30
2018-04-08T23:09:50.192Z,82.70
2018-04-08T23:12:17.736Z,82.50
2018-04-08T23:14:46.000Z,82.00
2018-04-08T23:17:13.872Z,81.90
2018-04-08T23:19:41.978Z,81.20
2018-04-08T23:22:09.477Z,82.10
2018-04-08T23:24:36.987Z,84.20
2018-04-08T23:27:04.481Z,84.40
2018-04-08T23:29:32.011Z,83.90
2018-04-08T23:31:59.505Z,84.10
2018-04-08T23:34:27.278Z,84.20
2018-04-08T23:36:55.210Z,84.80
2018-04-08T23:39:22.774Z,84.50
2018-04-08T23:41:50.267Z,85.00
2018-04-08T23:44:17.741Z,86.40
2018-04-08T23:46:46.512Z,86.70
2018-04-08T23:49:15.525Z,87.30
2018-04-08T23:51:43.907Z,87.90
2018-04-08T23:54:11.770Z,87.90
2018-04-08T23:56:39.256Z,88.10
2018-04-08T23:59:07.001Z,87.30
